« 定点 富山空港 2020/7/24 fri | トップページ | ### RJNT log 202007 ### »

2020/07/29

定点 富山空港 2020/7/29 wed

前線が停滞して、ぐずついた梅雨の空が続きます。毎日、山岳部には大雨警報が出ていますが、平野部は、ほどほど。

RJNT 282300Z 31003KT 280V350 9999 -SHRA FEW003 BKN007 BKN010 24/23 Q1013

20200729_rjnt_00eifukumaru

えいふく丸 JD3594 新栄船舶

まるで雲に乗っている様

20200729_rjnt_01ja74an

ANA313 RJTT-RJNT JA74AN B737-881

かろうじて視認

RJNT 290000Z VRB02KT 9999 -SHRA FEW003 BKN009 BKN020 25/23 Q1014

20200729_rjnt_02ja74an

8月から全便復活の予定でしたが、コロナ第二波の流行により、8/8から8/17までの間 315-1181-1182-320のみ復活となった。

20200729_rjnt_03ja74an

ANA316 RJNT-RJTT JA74AN B737-881

20200729_rjnt_04rw02

空が暗くて、滑走路照明が眩しかった。

今日は、他にはフライトなし。暇すぎ。

|

« 定点 富山空港 2020/7/24 fri | トップページ | ### RJNT log 202007 ### »

富山空港」カテゴリの記事

コメント

コメントを書く



(ウェブ上には掲載しません)


コメントは記事投稿者が公開するまで表示されません。



« 定点 富山空港 2020/7/24 fri | トップページ | ### RJNT log 202007 ### »